Terminal Aerodrome Forecast
Issued by NWS Northern Indiana

Home | Current Version | Previous Version | Graphics & Text | Print | Product List | Glossary On
Versions: 1 2 3 4 5 6 7 8 9 10 11 12 13 14
632
FTUS43 KIWX 182219 AAC
TAFFWA
TAF AMD
KFWA 182219Z 1822/1918 33018G27KT P6SM -SHRA OVC015
      TEMPO 1822/1824 BKN008
     FM190400 32021G29KT P6SM VCSH OVC015
     FM190600 31017G29KT P6SM OVC020
     FM190800 30014KT P6SM OVC025=

USA.gov is the U.S. government's official web portal to all federal, state and local government web resources and services.